Terminal Aerodrome Forecast
Issued by NWS

Home | Current Version | Previous Version | Text Only | Print | Product List | Glossary Off
Versions: 1 2 3 4 5 6 7 8 9 10 11 12 13 14 15 16 17

812
FTUS43 KMPX 112328
TAFRWF
TAF
KRWF 112328Z 1200/1224 20007KT 5SM BR OVC025
     FM120200 26005KT P6SM OVC015
     FM120700 32010KT P6SM OVC050
     FM121400 32015G23KT P6SM SKC=

USA.gov is the U.S. government's official web portal to all federal, state and local government web resources and services.